createdAt,value
2019-01-16T00:00:44.999Z,0.00
2019-01-16T00:01:44.988Z,0.00
2019-01-16T00:02:44.970Z,0.00
2019-01-16T00:03:44.961Z,0.00
2019-01-16T00:04:44.967Z,0.00
2019-01-16T00:05:44.935Z,0.00
2019-01-16T00:06:44.925Z,0.00
2019-01-16T00:07:44.907Z,0.00
2019-01-16T00:08:44.895Z,0.00
2019-01-16T00:09:44.875Z,0.00
2019-01-16T00:10:44.866Z,0.00
2019-01-16T00:11:44.864Z,0.00
2019-01-16T00:12:44.838Z,0.00
2019-01-16T00:13:44.832Z,0.00
2019-01-16T00:14:44.815Z,0.00
2019-01-16T00:15:44.804Z,0.00
2019-01-16T00:16:44.794Z,0.00
2019-01-16T00:17:44.797Z,0.00
2019-01-16T00:18:44.764Z,0.00
2019-01-16T00:19:44.752Z,0.00
2019-01-16T00:20:44.739Z,0.00
2019-01-16T00:21:44.726Z,0.00
2019-01-16T00:22:44.713Z,0.00
2019-01-16T00:23:44.699Z,0.00
2019-01-16T00:24:44.698Z,0.00
2019-01-16T00:25:44.673Z,0.00
2019-01-16T00:26:44.662Z,0.00
2019-01-16T00:27:44.652Z,0.00
2019-01-16T00:28:44.635Z,0.00
2019-01-16T00:29:44.625Z,0.00
2019-01-16T00:30:44.626Z,0.00
2019-01-16T00:31:44.598Z,0.00
2019-01-16T00:32:44.582Z,0.00
2019-01-16T00:33:44.570Z,0.00
2019-01-16T00:34:44.552Z,0.00
2019-01-16T00:35:44.545Z,0.00
2019-01-16T00:36:44.528Z,0.00
2019-01-16T00:37:44.521Z,0.00
2019-01-16T00:38:44.503Z,0.00
2019-01-16T00:39:44.492Z,0.00
2019-01-16T00:40:44.474Z,0.00
2019-01-16T00:41:44.465Z,0.00
2019-01-16T00:42:44.450Z,0.00
2019-01-16T00:43:44.439Z,0.00
2019-01-16T00:44:44.427Z,0.00
2019-01-16T00:45:44.413Z,0.00
2019-01-16T00:46:44.397Z,0.00
2019-01-16T00:47:44.386Z,0.00
2019-01-16T00:48:44.373Z,0.00
2019-01-16T00:49:44.359Z,0.00
2019-01-16T00:50:44.348Z,0.00
2019-01-16T00:51:44.334Z,0.00
2019-01-16T00:52:44.329Z,0.00
2019-01-16T00:53:44.304Z,0.00
2019-01-16T00:54:44.292Z,0.00
2019-01-16T00:55:44.281Z,0.00
2019-01-16T00:56:44.272Z,0.00
2019-01-16T00:57:44.254Z,0.00
2019-01-16T00:58:44.245Z,0.00
2019-01-16T00:59:44.226Z,0.00
2019-01-16T01:00:44.216Z,0.00
2019-01-16T01:01:44.202Z,0.00
2019-01-16T01:02:44.188Z,0.00
2019-01-16T01:03:44.176Z,0.00
2019-01-16T01:04:44.167Z,0.00
2019-01-16T01:05:44.150Z,0.00
2019-01-16T01:06:44.132Z,0.00
2019-01-16T01:07:44.125Z,0.00
2019-01-16T01:08:44.110Z,0.00
2019-01-16T01:09:44.098Z,0.00
2019-01-16T01:10:44.085Z,0.00
2019-01-16T01:11:44.074Z,0.00
2019-01-16T01:12:44.061Z,0.00
2019-01-16T01:13:44.045Z,0.00
2019-01-16T01:14:44.030Z,0.00
2019-01-16T01:15:44.018Z,0.00
2019-01-16T01:16:44.007Z,0.00
2019-01-16T01:17:43.993Z,0.00
2019-01-16T01:18:43.979Z,0.00
2019-01-16T01:19:43.971Z,0.00
2019-01-16T01:20:43.954Z,0.00
2019-01-16T01:21:43.939Z,0.00
2019-01-16T01:22:43.926Z,0.00
2019-01-16T01:23:43.932Z,0.00
2019-01-16T01:24:43.901Z,0.00
2019-01-16T01:25:43.877Z,0.00
2019-01-16T01:26:43.870Z,0.00
2019-01-16T01:27:43.860Z,0.00
2019-01-16T01:28:43.847Z,0.00
2019-01-16T01:29:43.837Z,0.00
2019-01-16T01:30:43.821Z,0.00
2019-01-16T01:31:43.806Z,0.00
2019-01-16T01:32:43.792Z,0.00
2019-01-16T01:33:43.779Z,0.00
2019-01-16T01:34:43.767Z,0.00
2019-01-16T01:35:43.754Z,0.00
2019-01-16T01:36:43.744Z,0.00
2019-01-16T01:37:43.728Z,0.00
2019-01-16T01:38:43.715Z,0.00
2019-01-16T01:39:43.701Z,0.00
2019-01-16T01:40:43.687Z,0.00
2019-01-16T01:41:43.676Z,0.00
2019-01-16T01:42:43.659Z,0.00
2019-01-16T01:43:43.667Z,0.00
2019-01-16T01:44:43.637Z,0.00
2019-01-16T01:45:43.621Z,0.00
2019-01-16T01:46:43.607Z,0.00
2019-01-16T01:47:43.587Z,0.00
2019-01-16T01:48:43.576Z,0.00
2019-01-16T01:49:43.569Z,0.00
2019-01-16T01:50:43.557Z,0.00
2019-01-16T01:51:43.541Z,0.00
2019-01-16T01:52:43.526Z,0.00
2019-01-16T01:53:43.514Z,0.00
2019-01-16T01:54:43.502Z,0.00
2019-01-16T01:55:43.500Z,0.00
2019-01-16T01:56:43.471Z,0.00
2019-01-16T01:57:43.462Z,0.00
2019-01-16T01:58:43.445Z,0.00
2019-01-16T01:59:43.433Z,0.00
2019-01-16T02:00:43.422Z,0.00
2019-01-16T02:01:43.425Z,0.00
2019-01-16T02:02:43.397Z,0.00
2019-01-16T02:03:43.381Z,0.00
2019-01-16T02:04:43.367Z,0.00
2019-01-16T02:05:43.356Z,0.00
2019-01-16T02:06:43.347Z,0.00
2019-01-16T02:07:43.327Z,0.00
2019-01-16T02:08:43.314Z,0.00
2019-01-16T02:09:43.301Z,0.00
2019-01-16T02:10:43.288Z,0.00
2019-01-16T02:11:43.273Z,0.00
2019-01-16T02:12:43.262Z,0.00
2019-01-16T02:13:43.248Z,0.00
2019-01-16T02:14:43.235Z,0.00
2019-01-16T02:15:43.221Z,0.00
2019-01-16T02:16:43.207Z,0.00
2019-01-16T02:17:43.196Z,0.00
2019-01-16T02:18:47.305Z,0.00
2019-01-16T02:19:43.167Z,0.00
2019-01-16T02:20:43.153Z,0.00
2019-01-16T02:21:43.140Z,0.00
2019-01-16T02:22:43.128Z,0.00
2019-01-16T02:23:43.115Z,0.00
2019-01-16T02:24:43.104Z,0.00
2019-01-16T02:25:43.088Z,0.00
2019-01-16T02:26:43.072Z,0.00
2019-01-16T02:27:43.055Z,0.00
2019-01-16T02:28:43.045Z,0.00
2019-01-16T02:29:43.034Z,0.00
2019-01-16T02:30:43.027Z,0.00
2019-01-16T02:31:43.004Z,0.00
2019-01-16T02:32:42.991Z,0.00
2019-01-16T02:33:42.977Z,0.00
2019-01-16T02:34:42.964Z,0.00
2019-01-16T02:35:42.953Z,0.00
2019-01-16T02:36:42.938Z,0.00
2019-01-16T02:37:42.938Z,0.00
2019-01-16T02:38:42.910Z,0.00
2019-01-16T02:39:42.897Z,0.00
2019-01-16T02:40:42.885Z,0.00
2019-01-16T02:41:42.870Z,0.00
2019-01-16T02:42:42.853Z,0.00
2019-01-16T02:43:42.843Z,0.00
2019-01-16T02:44:42.818Z,0.00
2019-01-16T02:45:42.817Z,0.00
2019-01-16T02:46:42.803Z,0.00
2019-01-16T02:47:42.787Z,0.00
2019-01-16T02:48:42.773Z,0.00
2019-01-16T02:49:42.763Z,0.00
2019-01-16T02:50:42.747Z,0.00
2019-01-16T02:51:42.768Z,0.00
2019-01-16T02:52:42.847Z,0.00
2019-01-16T02:53:42.708Z,0.00
2019-01-16T02:54:42.696Z,0.00
2019-01-16T02:55:42.684Z,0.00
2019-01-16T02:56:42.664Z,0.00
2019-01-16T02:57:42.659Z,0.00
2019-01-16T02:58:42.637Z,0.00
2019-01-16T02:59:42.621Z,0.00
2019-01-16T03:00:42.609Z,0.00
2019-01-16T03:01:42.593Z,0.00
2019-01-16T03:02:42.583Z,0.00
2019-01-16T03:03:42.569Z,0.00
2019-01-16T03:04:42.554Z,0.00
2019-01-16T03:05:42.540Z,0.00
2019-01-16T03:06:42.528Z,0.00
2019-01-16T03:07:42.520Z,0.00
2019-01-16T03:08:42.501Z,0.00
2019-01-16T03:09:42.502Z,0.00
2019-01-16T03:10:42.471Z,0.00
2019-01-16T03:11:42.460Z,0.00
2019-01-16T03:12:42.443Z,0.00
2019-01-16T03:13:42.433Z,0.00
2019-01-16T03:14:42.415Z,0.00
2019-01-16T03:15:42.403Z,0.00
2019-01-16T03:16:42.403Z,0.00
2019-01-16T03:17:42.378Z,0.00
2019-01-16T03:18:42.360Z,0.00
2019-01-16T03:19:42.345Z,0.00
2019-01-16T03:20:42.337Z,0.00
2019-01-16T03:21:42.326Z,0.00
2019-01-16T03:22:42.305Z,0.00
2019-01-16T03:23:42.293Z,0.00
2019-01-16T03:24:42.276Z,0.00
2019-01-16T03:25:42.265Z,0.00
2019-01-16T03:26:42.250Z,0.00
2019-01-16T03:27:42.236Z,0.00
2019-01-16T03:28:42.223Z,0.00
2019-01-16T03:29:42.209Z,0.00
2019-01-16T03:30:42.193Z,0.00
2019-01-16T03:31:42.182Z,0.00
2019-01-16T03:32:42.170Z,0.00
2019-01-16T03:33:42.154Z,0.00
2019-01-16T03:34:42.139Z,0.00
2019-01-16T03:35:42.122Z,0.00
2019-01-16T03:36:42.111Z,0.00
2019-01-16T03:37:42.090Z,0.00
2019-01-16T03:38:42.083Z,0.00
2019-01-16T03:39:42.072Z,0.00
2019-01-16T03:40:42.058Z,0.00
2019-01-16T03:41:42.042Z,0.00
2019-01-16T03:42:44.412Z,0.00
2019-01-16T03:43:42.020Z,0.00
2019-01-16T03:44:42.004Z,0.00
2019-01-16T03:45:41.987Z,0.00
2019-01-16T03:46:41.973Z,0.00
2019-01-16T03:47:41.958Z,0.00
2019-01-16T03:48:41.947Z,0.00
2019-01-16T03:49:41.936Z,0.00
2019-01-16T03:50:41.917Z,0.00
2019-01-16T03:51:41.903Z,0.00
2019-01-16T03:52:41.891Z,0.00
2019-01-16T03:53:41.879Z,0.00
2019-01-16T03:54:41.864Z,0.00
2019-01-16T03:55:41.849Z,0.00
2019-01-16T03:56:41.835Z,0.00
2019-01-16T03:57:41.819Z,0.00
2019-01-16T03:58:41.800Z,0.00
2019-01-16T03:59:41.795Z,0.00
2019-01-16T04:00:41.780Z,0.00
2019-01-16T04:01:41.776Z,0.00
2019-01-16T04:02:41.749Z,0.00
2019-01-16T04:03:41.739Z,0.00
2019-01-16T04:04:41.756Z,0.00
2019-01-16T04:05:41.709Z,0.00
2019-01-16T04:06:41.696Z,0.00
2019-01-16T04:07:41.677Z,0.00
2019-01-16T04:08:41.666Z,0.00
2019-01-16T04:09:41.656Z,0.00
2019-01-16T04:10:41.632Z,0.00
2019-01-16T04:11:41.625Z,0.00
2019-01-16T04:12:41.612Z,0.00
2019-01-16T04:13:41.605Z,0.00
2019-01-16T04:14:41.600Z,0.00
2019-01-16T04:15:41.570Z,0.00
2019-01-16T04:16:41.557Z,0.00
2019-01-16T04:17:41.544Z,0.00
2019-01-16T04:18:41.530Z,0.00
2019-01-16T04:19:41.519Z,0.00
2019-01-16T04:20:41.501Z,0.00
2019-01-16T04:21:41.485Z,0.00
2019-01-16T04:22:41.471Z,0.00
2019-01-16T04:23:41.471Z,0.00
2019-01-16T04:24:41.445Z,0.00
2019-01-16T04:25:41.432Z,0.00
2019-01-16T04:26:41.415Z,0.00
2019-01-16T04:27:41.410Z,0.00
2019-01-16T04:28:41.393Z,0.00
2019-01-16T04:29:41.385Z,0.00
2019-01-16T04:30:41.375Z,0.00
2019-01-16T04:31:41.347Z,0.00
2019-01-16T04:32:41.381Z,0.00
2019-01-16T04:33:44.031Z,0.00
2019-01-16T04:34:41.305Z,0.00
2019-01-16T04:35:41.291Z,0.00
2019-01-16T04:36:41.277Z,0.00
2019-01-16T04:37:41.267Z,0.00
2019-01-16T04:38:41.250Z,0.00
2019-01-16T04:39:41.240Z,0.00
2019-01-16T04:40:41.223Z,0.00
2019-01-16T04:41:41.211Z,0.00
2019-01-16T04:42:41.194Z,0.00
2019-01-16T04:43:41.181Z,0.00
2019-01-16T04:44:41.169Z,0.00
2019-01-16T04:45:41.182Z,0.00
2019-01-16T04:46:41.179Z,0.00
2019-01-16T04:47:41.124Z,0.00
2019-01-16T04:48:41.111Z,0.00
2019-01-16T04:49:41.099Z,0.00
2019-01-16T04:50:41.082Z,0.00
2019-01-16T04:51:41.066Z,0.00
2019-01-16T04:52:41.057Z,0.00
2019-01-16T04:53:41.029Z,0.00
2019-01-16T04:54:41.026Z,0.00
2019-01-16T04:55:41.011Z,0.00
2019-01-16T04:56:40.994Z,0.00
2019-01-16T04:57:40.978Z,0.00
2019-01-16T04:58:40.969Z,0.00
2019-01-16T04:59:40.958Z,0.00
2019-01-16T05:00:40.935Z,0.00
2019-01-16T05:01:40.923Z,0.00
2019-01-16T05:02:40.914Z,0.00
2019-01-16T05:03:40.903Z,0.00
2019-01-16T05:04:40.887Z,0.00
2019-01-16T05:05:40.870Z,0.00
2019-01-16T05:06:40.856Z,0.00
2019-01-16T05:07:40.845Z,0.00
2019-01-16T05:08:40.833Z,0.00
2019-01-16T05:09:40.816Z,0.00
2019-01-16T05:10:40.805Z,0.00
2019-01-16T05:11:40.788Z,0.00
2019-01-16T05:12:40.776Z,0.00
2019-01-16T05:13:40.761Z,0.00
2019-01-16T05:14:40.743Z,0.00
2019-01-16T05:15:40.748Z,0.00
2019-01-16T05:16:40.728Z,0.00
2019-01-16T05:17:40.702Z,0.00
2019-01-16T05:18:41.623Z,0.00
2019-01-16T05:19:40.680Z,0.00
2019-01-16T05:20:40.657Z,0.00
2019-01-16T05:21:40.647Z,0.00
2019-01-16T05:22:40.632Z,0.00
2019-01-16T05:23:43.787Z,0.00
2019-01-16T05:24:40.598Z,0.00
2019-01-16T05:25:40.591Z,0.00
2019-01-16T05:26:40.613Z,0.00
2019-01-16T05:27:40.564Z,0.00
2019-01-16T05:28:40.551Z,0.00
2019-01-16T05:29:40.535Z,0.00
2019-01-16T05:30:40.519Z,0.00
2019-01-16T05:31:40.507Z,0.00
2019-01-16T05:32:40.499Z,0.00
2019-01-16T05:33:40.480Z,0.00
2019-01-16T05:34:40.455Z,0.00
2019-01-16T05:35:40.450Z,0.00
2019-01-16T05:36:40.443Z,0.00
2019-01-16T05:37:40.424Z,0.00
2019-01-16T05:38:40.413Z,0.00
2019-01-16T05:39:40.394Z,0.00
2019-01-16T05:40:40.384Z,0.00
2019-01-16T05:41:40.368Z,0.00
2019-01-16T05:42:40.353Z,0.00
2019-01-16T05:43:40.341Z,0.00
2019-01-16T05:44:40.327Z,0.00
2019-01-16T05:45:40.312Z,0.00
2019-01-16T05:46:40.304Z,0.00
2019-01-16T05:47:40.283Z,0.00
2019-01-16T05:48:40.271Z,0.00
2019-01-16T05:49:46.579Z,0.00
2019-01-16T05:50:40.242Z,0.00
2019-01-16T05:51:40.228Z,0.00
2019-01-16T05:52:40.213Z,0.00
2019-01-16T05:53:40.200Z,0.00
2019-01-16T05:54:40.187Z,0.00
2019-01-16T05:55:40.174Z,0.00
2019-01-16T05:56:40.159Z,0.00
2019-01-16T05:57:40.146Z,0.00
2019-01-16T05:58:40.132Z,0.00
2019-01-16T05:59:40.117Z,0.00
2019-01-16T06:00:40.104Z,0.00
2019-01-16T06:01:40.089Z,0.00
2019-01-16T06:02:40.079Z,0.00
2019-01-16T06:03:40.063Z,0.00
2019-01-16T06:04:40.047Z,0.00
2019-01-16T06:05:40.038Z,0.00
2019-01-16T06:06:40.016Z,0.00
2019-01-16T06:07:40.005Z,0.00
2019-01-16T06:08:39.993Z,0.00
2019-01-16T06:09:39.978Z,0.00
2019-01-16T06:10:39.965Z,0.00
2019-01-16T06:11:39.950Z,0.00
2019-01-16T06:12:39.934Z,0.00
2019-01-16T06:13:39.926Z,0.00
2019-01-16T06:14:42.150Z,0.00
2019-01-16T06:15:39.898Z,0.00
2019-01-16T06:16:39.879Z,0.00
2019-01-16T06:17:39.865Z,0.00
2019-01-16T06:18:39.859Z,0.00
2019-01-16T06:19:39.837Z,0.00
2019-01-16T06:20:39.834Z,0.00
2019-01-16T06:21:39.812Z,0.00
2019-01-16T06:22:39.795Z,0.00
2019-01-16T06:23:39.780Z,0.00
2019-01-16T06:24:39.767Z,0.00
2019-01-16T06:25:39.751Z,0.00
2019-01-16T06:26:39.738Z,0.00
2019-01-16T06:27:39.724Z,0.00
2019-01-16T06:28:39.703Z,0.00
2019-01-16T06:29:39.699Z,0.00
2019-01-16T06:30:39.683Z,4.00
2019-01-16T06:31:39.670Z,4.00
2019-01-16T06:32:39.656Z,4.00
2019-01-16T06:33:39.643Z,0.00
2019-01-16T06:34:39.629Z,4.00
2019-01-16T06:35:39.614Z,4.00
2019-01-16T06:36:39.600Z,4.00
2019-01-16T06:37:39.586Z,8.00
2019-01-16T06:38:39.571Z,8.00
2019-01-16T06:39:39.558Z,8.00
2019-01-16T06:40:39.545Z,8.00
2019-01-16T06:41:39.536Z,12.00
2019-01-16T06:42:39.518Z,12.00
2019-01-16T06:43:39.501Z,20.00
2019-01-16T06:44:39.503Z,16.00
2019-01-16T06:45:39.477Z,20.00
2019-01-16T06:46:39.460Z,28.00
2019-01-16T06:47:39.445Z,32.00
2019-01-16T06:48:39.432Z,40.00
2019-01-16T06:49:39.411Z,44.00
2019-01-16T06:50:39.406Z,52.00
2019-01-16T06:51:39.392Z,60.00
2019-01-16T06:52:39.377Z,68.00
2019-01-16T06:53:39.361Z,76.00
2019-01-16T06:54:39.346Z,92.00
2019-01-16T06:55:39.335Z,108.00
2019-01-16T06:56:39.321Z,116.00
2019-01-16T06:57:39.328Z,136.00
2019-01-16T06:58:39.290Z,156.00
2019-01-16T06:59:39.278Z,176.00
2019-01-16T07:00:39.263Z,200.00
2019-01-16T07:01:39.254Z,228.00
2019-01-16T07:02:39.237Z,260.00
2019-01-16T07:03:39.228Z,300.00
2019-01-16T07:04:39.199Z,344.00
2019-01-16T07:05:41.042Z,392.00
2019-01-16T07:06:39.188Z,444.00
2019-01-16T07:07:39.166Z,496.00
2019-01-16T07:08:39.145Z,572.00
2019-01-16T07:09:39.136Z,644.00
2019-01-16T07:10:39.117Z,700.00
2019-01-16T07:11:39.112Z,752.00
2019-01-16T07:12:39.101Z,824.00
2019-01-16T07:13:39.085Z,892.00
2019-01-16T07:14:39.073Z,972.00
2019-01-16T07:15:39.058Z,1068.00
2019-01-16T07:16:39.045Z,1180.00
2019-01-16T07:17:39.030Z,1272.00
2019-01-16T07:18:39.013Z,1384.00
2019-01-16T07:19:39.004Z,1472.00
2019-01-16T07:20:38.991Z,1540.00
2019-01-16T07:21:38.977Z,1652.00
2019-01-16T07:22:38.963Z,1692.00
2019-01-16T07:23:38.947Z,1804.00
2019-01-16T07:24:38.938Z,1844.00
2019-01-16T07:25:38.924Z,1944.00
2019-01-16T07:26:38.915Z,2052.00
2019-01-16T07:27:38.896Z,2152.00
2019-01-16T07:28:38.885Z,2228.00
2019-01-16T07:29:38.871Z,2332.00
2019-01-16T07:30:38.856Z,2424.00
2019-01-16T07:31:38.843Z,2512.00
2019-01-16T07:32:38.832Z,2588.00
2019-01-16T07:33:38.817Z,2628.00
2019-01-16T07:34:38.806Z,2656.00
2019-01-16T07:35:38.800Z,2652.00
2019-01-16T07:36:38.768Z,2628.00
2019-01-16T07:37:38.770Z,2560.00
2019-01-16T07:38:38.753Z,2576.00
2019-01-16T07:39:38.740Z,2624.00
2019-01-16T07:40:38.729Z,2600.00
2019-01-16T07:41:38.715Z,2492.00
2019-01-16T07:42:38.725Z,2660.00
2019-01-16T07:43:38.689Z,2844.00
2019-01-16T07:44:38.673Z,2872.00
2019-01-16T07:45:38.665Z,2888.00
2019-01-16T07:46:38.651Z,2996.00
2019-01-16T07:47:38.638Z,3052.00
2019-01-16T07:48:38.623Z,3160.00
2019-01-16T07:49:38.616Z,3240.00
2019-01-16T07:50:38.600Z,3180.00
2019-01-16T07:51:38.591Z,3264.00
2019-01-16T07:52:38.576Z,3100.00
2019-01-16T07:53:38.567Z,2928.00
2019-01-16T07:54:38.552Z,3008.00
2019-01-16T07:55:38.538Z,3088.00
2019-01-16T07:56:38.527Z,3208.00
2019-01-16T07:57:38.513Z,3264.00
2019-01-16T07:58:38.503Z,3336.00
2019-01-16T07:59:38.490Z,3372.00
2019-01-16T08:00:38.478Z,3508.00
2019-01-16T08:01:38.465Z,3540.00
2019-01-16T08:02:38.442Z,3592.00
2019-01-16T08:03:38.445Z,3716.00
2019-01-16T08:04:38.426Z,3668.00
2019-01-16T08:05:38.415Z,3684.00
2019-01-16T08:06:38.399Z,3700.00
2019-01-16T08:07:38.391Z,3792.00
2019-01-16T08:08:38.382Z,4024.00
2019-01-16T08:09:38.362Z,4208.00
2019-01-16T08:10:38.353Z,4428.00
2019-01-16T08:11:38.341Z,4796.00
2019-01-16T08:12:38.327Z,5004.00
2019-01-16T08:13:38.317Z,5120.00
2019-01-16T08:14:38.306Z,5316.00
2019-01-16T08:15:38.292Z,5612.00
2019-01-16T08:16:38.281Z,5608.00
2019-01-16T08:17:38.270Z,5948.00
2019-01-16T08:18:38.259Z,5916.00
2019-01-16T08:19:38.263Z,5852.00
2019-01-16T08:20:38.232Z,6016.00
2019-01-16T08:21:38.223Z,6172.00
2019-01-16T08:22:38.204Z,6620.00
2019-01-16T08:23:38.200Z,6640.00
2019-01-16T08:24:38.189Z,6744.00
2019-01-16T08:25:38.180Z,6728.00
2019-01-16T08:26:38.164Z,7104.00
2019-01-16T08:27:38.154Z,7240.00
2019-01-16T08:28:38.154Z,7036.00
2019-01-16T08:29:38.132Z,7036.00
2019-01-16T08:30:38.127Z,7472.00
2019-01-16T08:31:38.108Z,7328.00
2019-01-16T08:32:38.101Z,7192.00
2019-01-16T08:33:38.090Z,7072.00
2019-01-16T08:34:38.084Z,7148.00
2019-01-16T08:35:38.065Z,7212.00
2019-01-16T08:36:38.058Z,7520.00
2019-01-16T08:37:38.045Z,7668.00
2019-01-16T08:38:38.040Z,7788.00
2019-01-16T08:39:38.030Z,8220.00
2019-01-16T08:40:38.015Z,7964.00
2019-01-16T08:41:38.005Z,8484.00
2019-01-16T08:42:37.995Z,8432.00
2019-01-16T08:43:37.979Z,8368.00
2019-01-16T08:44:38.238Z,7668.00
2019-01-16T08:45:37.966Z,7956.00
2019-01-16T08:46:38.001Z,7648.00
2019-01-16T08:47:37.947Z,7540.00
2019-01-16T08:48:37.926Z,7688.00
2019-01-16T08:49:37.922Z,8136.00
2019-01-16T08:50:37.915Z,7864.00
2019-01-16T08:51:37.906Z,7868.00
2019-01-16T08:52:37.895Z,7984.00
2019-01-16T08:53:37.886Z,7872.00
2019-01-16T08:54:37.872Z,8228.00
2019-01-16T08:55:37.866Z,8080.00
2019-01-16T08:56:37.858Z,7912.00
2019-01-16T08:57:37.849Z,7820.00
2019-01-16T08:58:37.844Z,7136.00
2019-01-16T08:59:37.826Z,7080.00
2019-01-16T09:00:37.809Z,6828.00
2019-01-16T09:01:37.814Z,6488.00
2019-01-16T09:02:37.798Z,6252.00
2019-01-16T09:03:37.794Z,6332.00
2019-01-16T09:04:37.781Z,6360.00
2019-01-16T09:05:37.771Z,6392.00
2019-01-16T09:06:37.766Z,6364.00
2019-01-16T09:07:37.754Z,6428.00
2019-01-16T09:08:37.742Z,6504.00
2019-01-16T09:09:37.739Z,6980.00
2019-01-16T09:10:37.727Z,7696.00
2019-01-16T09:11:37.716Z,7764.00
2019-01-16T09:12:37.710Z,7840.00
2019-01-16T09:13:37.694Z,7564.00
2019-01-16T09:14:37.688Z,7688.00
2019-01-16T09:15:37.687Z,7716.00
2019-01-16T09:16:37.672Z,6692.00
2019-01-16T09:17:37.661Z,6520.00
2019-01-16T09:18:37.644Z,6460.00
2019-01-16T09:19:37.643Z,6432.00
2019-01-16T09:20:40.070Z,6732.00
2019-01-16T09:21:37.617Z,7024.00
2019-01-16T09:22:37.622Z,7396.00
2019-01-16T09:23:37.609Z,7796.00
2019-01-16T09:24:37.589Z,7776.00
2019-01-16T09:25:37.589Z,9224.00
2019-01-16T09:26:37.617Z,9936.00
2019-01-16T09:27:37.570Z,10336.00
2019-01-16T09:28:37.561Z,10428.00
2019-01-16T09:29:37.552Z,10620.00
2019-01-16T09:30:37.548Z,10636.00
2019-01-16T09:31:37.527Z,10668.00
2019-01-16T09:32:37.530Z,10584.00
2019-01-16T09:33:37.515Z,10460.00
2019-01-16T09:34:37.511Z,10440.00
2019-01-16T09:35:37.509Z,10448.00
2019-01-16T09:36:37.537Z,10508.00
2019-01-16T09:37:40.000Z,10436.00
2019-01-16T09:38:37.486Z,10404.00
2019-01-16T09:39:37.479Z,10392.00
2019-01-16T09:40:37.469Z,10376.00
2019-01-16T09:41:37.457Z,10480.00
2019-01-16T09:42:37.463Z,10432.00
2019-01-16T09:43:37.452Z,10364.00
2019-01-16T09:44:37.455Z,10240.00
2019-01-16T09:45:37.453Z,9612.00
2019-01-16T09:46:37.443Z,10368.00
2019-01-16T09:47:37.438Z,9488.00
2019-01-16T09:48:37.434Z,9704.00
2019-01-16T09:49:37.432Z,10288.00
2019-01-16T09:50:37.419Z,10024.00
2019-01-16T09:51:37.436Z,9872.00
2019-01-16T09:52:37.411Z,10584.00
2019-01-16T09:53:37.411Z,10320.00
2019-01-16T09:54:37.409Z,10000.00
2019-01-16T09:55:37.403Z,10352.00
2019-01-16T09:56:37.403Z,9792.00
2019-01-16T09:57:37.396Z,10280.00
2019-01-16T09:58:37.396Z,10284.00
2019-01-16T09:59:37.393Z,10024.00
2019-01-16T10:00:37.389Z,10308.00
2019-01-16T10:01:37.385Z,10472.00
2019-01-16T10:02:37.383Z,10548.00
2019-01-16T10:03:37.380Z,9872.00
2019-01-16T10:04:37.379Z,10708.00
2019-01-16T10:05:37.374Z,10712.00
2019-01-16T10:06:37.379Z,10764.00
2019-01-16T10:07:37.360Z,10800.00
2019-01-16T10:08:37.378Z,10800.00
2019-01-16T10:09:37.362Z,10680.00
2019-01-16T10:10:37.358Z,10692.00
2019-01-16T10:11:37.355Z,10508.00
2019-01-16T10:12:37.357Z,10024.00
2019-01-16T10:13:37.351Z,10672.00
2019-01-16T10:14:37.345Z,10768.00
2019-01-16T10:15:37.337Z,10856.00
2019-01-16T10:16:37.345Z,10724.00
2019-01-16T10:17:37.338Z,9916.00
2019-01-16T10:18:37.336Z,10512.00
2019-01-16T10:19:37.327Z,10564.00
2019-01-16T10:20:37.330Z,10768.00
2019-01-16T10:21:37.333Z,10860.00
2019-01-16T10:22:37.324Z,10792.00
2019-01-16T10:23:37.321Z,10896.00
2019-01-16T10:24:37.317Z,10776.00
2019-01-16T10:25:37.320Z,10572.00
2019-01-16T10:26:37.319Z,10644.00
2019-01-16T10:27:37.365Z,10812.00
2019-01-16T10:28:39.277Z,10976.00
2019-01-16T10:29:37.307Z,10896.00
2019-01-16T10:30:37.304Z,10896.00
2019-01-16T10:31:37.302Z,11032.00
2019-01-16T10:32:37.304Z,11200.00
2019-01-16T10:33:37.292Z,11316.00
2019-01-16T10:34:37.289Z,11320.00
2019-01-16T10:35:37.287Z,10692.00
2019-01-16T10:36:37.286Z,10676.00
2019-01-16T10:37:37.285Z,10688.00
2019-01-16T10:38:37.285Z,10500.00
2019-01-16T10:39:37.275Z,10372.00
2019-01-16T10:40:37.276Z,10388.00
2019-01-16T10:41:37.274Z,10404.00
2019-01-16T10:42:37.277Z,10248.00
2019-01-16T10:43:37.272Z,10368.00
2019-01-16T10:44:37.266Z,10276.00
2019-01-16T10:45:37.261Z,10248.00
2019-01-16T10:46:37.260Z,10168.00
2019-01-16T10:47:37.256Z,9168.00
2019-01-16T10:48:37.256Z,10200.00
2019-01-16T10:49:37.275Z,10252.00
2019-01-16T10:50:37.251Z,10248.00
2019-01-16T10:51:37.246Z,10224.00
2019-01-16T10:52:37.286Z,10236.00
2019-01-16T10:53:37.238Z,10320.00
2019-01-16T10:54:37.234Z,10320.00
2019-01-16T10:55:37.238Z,10244.00
2019-01-16T10:56:37.228Z,10220.00
2019-01-16T10:57:37.221Z,10212.00
2019-01-16T10:58:37.230Z,9752.00
2019-01-16T10:59:37.218Z,9560.00
2019-01-16T11:00:37.217Z,9900.00
2019-01-16T11:01:37.215Z,9892.00
2019-01-16T11:02:37.211Z,10012.00
2019-01-16T11:03:37.210Z,9968.00
2019-01-16T11:04:37.204Z,9948.00
2019-01-16T11:05:37.202Z,9980.00
2019-01-16T11:06:37.206Z,9568.00
2019-01-16T11:07:37.195Z,9876.00
2019-01-16T11:08:37.190Z,9900.00
2019-01-16T11:09:37.195Z,9792.00
2019-01-16T11:10:37.182Z,9772.00
2019-01-16T11:11:37.182Z,9812.00
2019-01-16T11:12:37.209Z,9740.00
2019-01-16T11:13:37.243Z,9640.00
2019-01-16T11:14:37.173Z,9764.00
2019-01-16T11:15:37.166Z,9828.00
2019-01-16T11:16:38.673Z,9732.00
2019-01-16T11:17:37.166Z,9780.00
2019-01-16T11:18:37.162Z,9596.00
2019-01-16T11:19:37.157Z,9204.00
2019-01-16T11:20:37.164Z,9628.00
2019-01-16T11:21:37.155Z,9648.00
2019-01-16T11:22:37.154Z,9872.00
2019-01-16T11:23:37.149Z,9980.00
2019-01-16T11:24:37.148Z,9864.00
2019-01-16T11:25:37.143Z,9884.00
2019-01-16T11:26:37.141Z,9872.00
2019-01-16T11:27:37.140Z,9924.00
2019-01-16T11:28:37.140Z,9984.00
2019-01-16T11:29:37.156Z,9976.00
2019-01-16T11:30:37.132Z,9904.00
2019-01-16T11:31:37.133Z,9884.00
2019-01-16T11:32:37.131Z,9824.00
2019-01-16T11:33:37.122Z,9780.00
2019-01-16T11:34:37.123Z,9620.00
2019-01-16T11:35:37.122Z,9708.00
2019-01-16T11:36:37.122Z,9608.00
2019-01-16T11:37:37.115Z,9580.00
2019-01-16T11:38:37.117Z,9572.00
2019-01-16T11:39:37.113Z,9476.00
2019-01-16T11:40:37.116Z,9456.00
2019-01-16T11:41:37.109Z,9484.00
2019-01-16T11:42:37.104Z,9372.00
2019-01-16T11:43:37.103Z,9340.00
2019-01-16T11:44:37.105Z,9212.00
2019-01-16T11:45:37.103Z,9316.00
2019-01-16T11:46:37.098Z,9280.00
2019-01-16T11:47:37.090Z,9232.00
2019-01-16T11:48:37.093Z,9456.00
2019-01-16T11:49:37.091Z,9356.00
2019-01-16T11:50:37.088Z,9364.00
2019-01-16T11:51:37.088Z,9668.00
2019-01-16T11:52:37.085Z,9996.00
2019-01-16T11:53:37.083Z,10180.00
2019-01-16T11:54:37.078Z,10060.00
2019-01-16T11:55:37.077Z,9824.00
2019-01-16T11:56:37.074Z,9648.00
2019-01-16T11:57:37.075Z,9512.00
2019-01-16T11:58:37.070Z,9368.00
2019-01-16T11:59:37.068Z,9272.00
2019-01-16T12:00:37.070Z,9152.00
2019-01-16T12:01:37.062Z,9112.00
2019-01-16T12:02:38.647Z,8996.00
2019-01-16T12:03:37.078Z,8804.00
2019-01-16T12:04:37.057Z,8908.00
2019-01-16T12:05:37.055Z,8940.00
2019-01-16T12:06:37.052Z,8876.00
2019-01-16T12:07:37.059Z,8932.00
2019-01-16T12:08:39.173Z,9096.00
2019-01-16T12:09:37.047Z,9144.00
2019-01-16T12:10:37.046Z,9148.00
2019-01-16T12:11:37.052Z,9204.00
2019-01-16T12:12:37.041Z,9196.00
2019-01-16T12:13:37.032Z,9712.00
2019-01-16T12:14:37.039Z,9948.00
2019-01-16T12:15:37.055Z,10332.00
2019-01-16T12:16:37.032Z,10756.00
2019-01-16T12:17:37.028Z,11044.00
2019-01-16T12:18:37.020Z,11232.00
2019-01-16T12:19:37.033Z,11344.00
2019-01-16T12:20:37.025Z,11176.00
2019-01-16T12:21:37.050Z,10964.00
2019-01-16T12:22:37.011Z,10692.00
2019-01-16T12:23:37.009Z,10592.00
2019-01-16T12:24:37.010Z,10680.00
2019-01-16T12:25:37.004Z,10900.00
2019-01-16T12:26:37.002Z,11416.00
2019-01-16T12:27:36.992Z,11596.00
2019-01-16T12:28:37.001Z,11656.00
2019-01-16T12:29:37.039Z,11988.00
2019-01-16T12:30:36.991Z,12044.00
2019-01-16T12:31:36.989Z,12088.00
2019-01-16T12:32:36.985Z,11900.00
2019-01-16T12:33:36.983Z,12504.00
2019-01-16T12:34:36.979Z,12988.00
2019-01-16T12:35:36.975Z,13148.00
2019-01-16T12:36:36.970Z,13152.00
2019-01-16T12:37:36.971Z,12780.00
2019-01-16T12:38:36.963Z,12676.00
2019-01-16T12:39:36.963Z,12508.00
2019-01-16T12:40:36.962Z,12292.00